TAF

Aerodrome Forecast TAF

TAF description (Slovak)

21.03.2019 - 20:00 UTC

TAF LZSL 212000Z 2121/2206 VRB02KT CAVOK=
TAF LZZI 212000Z 2121/2206 VRB02KT CAVOK
    TEMPO 2203/2206 4500 BR NSC=

21.03.2019 - 17:00 UTC

TAF LZIB 211700Z 2118/2218 VRB02KT CAVOK
    TEMPO 2118/2120 21006KT
    TEMPO 2212/2217 08005KT=
TAF LZKZ 211700Z 2118/2218 VRB02KT CAVOK
    BECMG 2204/2206 9999 SCT040
    BECMG 2210/2212 36008KT
    TEMPO 2211/2217 9999 BKN045=
TAF LZTT 211700Z 2118/2218 VRB02KT CAVOK
    TEMPO 2118/2120 9999 FEW055
    PROB40 TEMPO 2120/2207 2800 BR FEW028
    TEMPO 2212/2217 10006KT
    BECMG 2217/2218 3500 BR SCT025=

21.03.2019 - 17:00 UTC

TAF LZSL 211700Z 2118/2203 VRB02KT CAVOK
    TEMPO 2118/2119 32005KT
    TEMPO 2118/2121 9999 FEW048=
TAF LZPP 211700Z 2118/2203 VRB02KT CAVOK
    TEMPO 2118/2119 29005KT=
TAF LZZI 211700Z 2118/2203 VRB02KT 9999 FEW050
    TEMPO 2118/2119 06008KT
    PROB40 TEMPO 2123/2203 4500 BR SCT025=

21.03.2019 - 14:00 UTC

TAF LZSL 211400Z 2115/2200 16005KT CAVOK
    BECMG 2115/2117 VRB02KT
    TEMPO 2117/2121 9999 SCT045=
TAF LZPP 211400Z 2115/2200 VRB02KT CAVOK
    TEMPO 2115/2117 33005KT=
TAF LZZI 211400Z 2115/2200 VRB02KT 9999 FEW050
    PROB40 TEMPO 2122/2200 4500 BR SCT030=

21.03.2019 - 11:00 UTC

TAF LZIB 211100Z 2112/2212 22005KT CAVOK
    BECMG 2120/2122 VRB02KT=
TAF LZKZ 211100Z 2112/2212 22005KT CAVOK
    TEMPO 2112/2118 9999 FEW070
    TEMPO 2120/2209 VRB02KT
    BECMG 2204/2206 9999 SCT045=
TAF LZTT 211100Z 2112/2212 24006KT CAVOK
    TEMPO 2112/2120 9999 FEW060
    BECMG 2115/2117 VRB02KT
    PROB40 TEMPO 2200/2206 4000 BR NSC
    TEMPO 2208/2210 9999 SCT045=

21.03.2019 - 11:00 UTC

TAF LZSL 211100Z 2112/2121 VRB02KT CAVOK
    TEMPO 2112/2115 15005KT=
TAF LZPP 211100Z 2112/2121 35003KT CAVOK=
TAF LZZI 211100Z 2112/2121 VRB02KT CAVOK=

21.03.2019 - 08:00 UTC

TAF LZSL 210800Z 2109/2118 VRB02KT CAVOK
    BECMG 2109/2111 15005KT=
TAF LZPP 210800Z 2109/2118 01005KT CAVOK=
TAF LZZI 210800Z 2109/2118 VRB02KT CAVOK=

21.03.2019 - 05:00 UTC

TAF LZIB 210500Z 2106/2206 VRB02KT CAVOK
    TEMPO 2108/2118 32006KT=
TAF LZKZ 210500Z 2106/2206 VRB02KT CAVOK
    TEMPO 2111/2118 21008KT 9999 FEW042 BKN100
    BECMG 2204/2206 9999 SCT040=
TAF LZTT 210500Z 2106/2206 VRB02KT CAVOK
    TEMPO 2108/2115 07006KT
    TEMPO 2112/2118 9999 FEW045 BKN090
    PROB40 TEMPO 2200/2206 4000 BR NSC=

21.03.2019 - 05:00 UTC

TAF LZSL 210500Z 2106/2115 VRB02KT CAVOK
    PROB30 TEMPO 2106/2107 5000 BR NSC
    BECMG 2107/2109 13005KT=
TAF LZPP 210500Z 2106/2115 03006KT CAVOK
    BECMG 2108/2110 34008KT=
TAF LZZI 210500Z 2106/2115 VRB02KT CAVOK
    PROB30 TEMPO 2106/2107 6000 NSC=

21.03.2019 - 02:00 UTC

TAF LZSL 210200Z 2103/2112 VRB02KT CAVOK
    PROB30 TEMPO 2103/2106 5000 BR NSC
    BECMG 2107/2109 13005KT=
TAF LZZI 210200Z 2103/2112 VRB02KT CAVOK
    PROB30 TEMPO 2104/2106 6000 NSC=

skok na menu ↑


skok na začiatok stránky ↑